createdAt,value
2022-09-11T00:02:41.667Z,8.20
2022-09-11T00:07:48.205Z,7.60
2022-09-11T00:12:54.481Z,8.10
2022-09-11T00:18:00.521Z,9.60
2022-09-11T00:23:07.459Z,9.30
2022-09-11T00:28:16.113Z,9.70
2022-09-11T00:33:22.776Z,8.50
2022-09-11T00:38:30.941Z,10.30
2022-09-11T00:49:23.648Z,9.70
2022-09-11T00:54:34.809Z,9.40
2022-09-11T01:04:47.545Z,10.80
2022-09-11T01:09:54.164Z,11.00
2022-09-11T01:15:05.722Z,10.80
2022-09-11T01:20:31.109Z,10.60
2022-09-11T01:25:56.881Z,11.30
2022-09-11T01:31:08.723Z,11.00
2022-09-11T01:36:20.892Z,12.10
2022-09-11T01:41:31.899Z,10.50
2022-09-11T01:46:42.869Z,10.60
2022-09-11T01:51:57.556Z,9.40
2022-09-11T01:57:07.872Z,9.90
2022-09-11T02:02:20.206Z,8.60
2022-09-11T02:07:30.461Z,8.50
2022-09-11T02:12:42.058Z,8.70
2022-09-11T02:17:55.140Z,8.80
2022-09-11T02:23:07.042Z,8.10
2022-09-11T02:28:13.829Z,8.20
2022-09-11T02:33:35.976Z,10.10
2022-09-11T02:38:55.709Z,8.50
2022-09-11T02:44:14.069Z,7.60
2022-09-11T02:49:34.039Z,8.20
2022-09-11T02:54:50.962Z,7.80
2022-09-11T03:00:01.127Z,7.30
2022-09-11T03:05:09.550Z,7.00
2022-09-11T03:10:15.812Z,6.80
2022-09-11T03:15:23.587Z,6.60
2022-09-11T03:20:30.447Z,5.80
2022-09-11T03:25:37.047Z,6.20
2022-09-11T03:30:44.757Z,5.50
2022-09-11T03:35:50.889Z,5.20
2022-09-11T03:40:58.629Z,4.90
2022-09-11T03:46:04.945Z,5.70
2022-09-11T03:51:12.097Z,5.50
2022-09-11T03:56:18.217Z,5.80
2022-09-11T04:01:27.116Z,5.10
2022-09-11T04:06:34.025Z,5.60
2022-09-11T04:11:40.354Z,5.30
2022-09-11T04:16:58.733Z,5.30
2022-09-11T04:22:05.783Z,6.30
2022-09-11T04:27:13.662Z,6.10
2022-09-11T04:32:20.138Z,5.30
2022-09-11T04:37:28.044Z,4.90
2022-09-11T04:42:34.146Z,5.50
2022-09-11T04:47:41.064Z,5.40
2022-09-11T04:52:47.986Z,5.40
2022-09-11T04:57:54.966Z,5.20
2022-09-11T05:03:02.061Z,6.10
2022-09-11T05:08:08.676Z,6.40
2022-09-11T05:13:15.427Z,5.40
2022-09-11T05:18:22.164Z,5.20
2022-09-11T05:23:29.342Z,6.30
2022-09-11T05:28:35.631Z,5.60
2022-09-11T05:33:44.207Z,5.60
2022-09-11T05:38:51.118Z,5.20
2022-09-11T05:43:59.485Z,5.40
2022-09-11T05:49:05.959Z,4.90
2022-09-11T05:54:12.310Z,5.10
2022-09-11T05:59:20.645Z,6.10
2022-09-11T06:04:28.089Z,6.10
2022-09-11T06:09:36.701Z,6.50
2022-09-11T06:14:44.508Z,5.10
2022-09-11T06:19:50.994Z,5.70
2022-09-11T06:25:25.278Z,5.90
2022-09-11T06:30:31.223Z,5.80
2022-09-11T06:35:37.390Z,6.80
2022-09-11T06:40:43.670Z,6.50
2022-09-11T06:45:49.979Z,6.30
2022-09-11T06:50:57.261Z,7.40
2022-09-11T06:56:06.899Z,6.50
2022-09-11T07:01:15.423Z,6.80
2022-09-11T07:06:26.526Z,6.80
2022-09-11T07:11:34.885Z,6.50
2022-09-11T07:16:41.375Z,6.80
2022-09-11T07:21:50.141Z,7.20
2022-09-11T07:26:56.941Z,7.30
2022-09-11T07:32:10.047Z,6.70
2022-09-11T07:37:17.792Z,6.90
2022-09-11T07:42:24.067Z,7.00
2022-09-11T07:47:31.036Z,7.30
2022-09-11T07:52:37.142Z,7.40
2022-09-11T07:57:45.506Z,7.00
2022-09-11T08:02:53.166Z,7.50
2022-09-11T08:08:07.213Z,7.40
2022-09-11T08:13:14.030Z,6.90
2022-09-11T08:18:21.882Z,7.20
2022-09-11T08:23:31.778Z,6.80
2022-09-11T08:28:40.383Z,7.80
2022-09-11T08:33:46.586Z,7.30
2022-09-11T08:38:54.189Z,6.80
2022-09-11T08:44:06.318Z,5.90
2022-09-11T08:49:21.832Z,5.70
2022-09-11T08:54:31.922Z,6.00
2022-09-11T08:59:56.604Z,5.30
2022-09-11T09:05:27.371Z,5.80
2022-09-11T09:10:47.902Z,4.90
2022-09-11T09:16:07.349Z,5.10
2022-09-11T09:21:20.587Z,4.70
2022-09-11T09:26:38.192Z,4.40
2022-09-11T09:31:47.587Z,4.30
2022-09-11T09:37:01.037Z,3.60
2022-09-11T09:42:22.978Z,3.70
2022-09-11T09:47:29.739Z,4.30
2022-09-11T09:52:36.494Z,4.00
2022-09-11T09:57:43.971Z,3.00
2022-09-11T10:02:56.061Z,4.10
2022-09-11T10:08:05.552Z,3.60
2022-09-11T10:13:24.937Z,3.50
2022-09-11T10:18:37.897Z,3.50
2022-09-11T10:23:50.494Z,3.50
2022-09-11T10:29:05.265Z,3.80
2022-09-11T10:34:21.231Z,4.20
2022-09-11T10:39:29.374Z,3.70
2022-09-11T10:44:37.046Z,3.80
2022-09-11T10:49:43.598Z,4.20
2022-09-11T10:55:07.882Z,4.10
2022-09-11T11:00:20.256Z,4.50
2022-09-11T11:05:36.620Z,6.20
2022-09-11T11:11:05.137Z,4.60
2022-09-11T11:16:23.051Z,5.00
2022-09-11T11:21:41.783Z,4.50
2022-09-11T11:26:59.417Z,4.30
2022-09-11T11:32:20.462Z,5.20
2022-09-11T11:37:32.606Z,5.60
2022-09-11T11:42:44.051Z,5.70
2022-09-11T11:47:52.729Z,6.10
2022-09-11T11:53:06.359Z,5.30
2022-09-11T11:58:20.409Z,5.80
2022-09-11T12:03:32.212Z,5.50
2022-09-11T12:08:44.931Z,4.90
2022-09-11T12:13:54.015Z,4.70
2022-09-11T12:19:20.006Z,4.80
2022-09-11T12:24:54.948Z,4.60
2022-09-11T12:30:22.760Z,4.00
2022-09-11T12:35:44.171Z,4.20
2022-09-11T12:40:54.092Z,4.40
2022-09-11T12:46:01.980Z,4.20
2022-09-11T12:51:20.902Z,3.70
2022-09-11T12:56:30.834Z,3.60
2022-09-11T13:01:42.310Z,3.80
2022-09-11T13:06:51.936Z,3.80
2022-09-11T13:12:21.436Z,3.40
2022-09-11T13:17:32.851Z,3.40
2022-09-11T13:22:39.336Z,3.10
2022-09-11T13:27:51.619Z,3.00
2022-09-11T13:33:08.321Z,3.20
2022-09-11T13:38:23.314Z,3.40
2022-09-11T13:43:35.751Z,3.10
2022-09-11T13:48:43.489Z,2.40
2022-09-11T13:53:56.134Z,1.80
2022-09-11T13:59:22.191Z,2.30
2022-09-11T14:04:29.210Z,2.50
2022-09-11T14:09:35.650Z,2.20
2022-09-11T14:14:46.974Z,1.90
2022-09-11T14:19:58.946Z,2.10
2022-09-11T14:25:21.182Z,2.00
2022-09-11T14:30:37.429Z,1.60
2022-09-11T14:35:44.974Z,1.90
2022-09-11T14:40:55.336Z,2.50
2022-09-11T14:46:02.849Z,4.40
2022-09-11T14:51:13.508Z,3.50
2022-09-11T14:56:19.909Z,2.30
2022-09-11T15:01:26.383Z,2.30
2022-09-11T15:06:32.710Z,2.10
2022-09-11T15:11:39.630Z,2.30
2022-09-11T15:16:45.865Z,1.80
2022-09-11T15:21:52.026Z,3.20
2022-09-11T15:26:58.240Z,3.30
2022-09-11T15:32:04.507Z,3.60
2022-09-11T15:37:10.829Z,2.60
2022-09-11T15:42:16.862Z,3.50
2022-09-11T15:47:24.092Z,3.40
2022-09-11T15:52:32.164Z,3.60
2022-09-11T15:57:39.274Z,4.80
2022-09-11T16:02:45.687Z,6.90
2022-09-11T16:07:51.989Z,6.10
2022-09-11T16:12:58.993Z,6.30
2022-09-11T16:18:09.450Z,5.90
2022-09-11T16:23:18.006Z,4.90
2022-09-11T16:28:24.387Z,5.00
2022-09-11T16:33:33.388Z,3.60
2022-09-11T16:38:40.162Z,5.00
2022-09-11T16:43:48.758Z,6.40
2022-09-11T16:49:01.490Z,5.00
2022-09-11T16:54:07.818Z,6.30
2022-09-11T16:59:13.799Z,5.40
2022-09-11T17:04:19.664Z,5.40
2022-09-11T17:09:25.814Z,6.60
2022-09-11T17:14:32.835Z,5.80
2022-09-11T17:19:39.107Z,4.40
2022-09-11T17:24:45.553Z,5.20
2022-09-11T17:29:51.438Z,5.10
2022-09-11T17:34:58.610Z,4.20
2022-09-11T17:40:09.383Z,5.50
2022-09-11T17:45:18.025Z,4.60
2022-09-11T17:50:24.498Z,4.50
2022-09-11T17:55:31.917Z,4.70
2022-09-11T18:00:38.873Z,5.10
2022-09-11T18:05:45.977Z,4.60
2022-09-11T18:10:53.774Z,8.30
2022-09-11T18:16:00.512Z,4.60
2022-09-11T18:21:08.929Z,4.20
2022-09-11T18:26:22.289Z,3.90
2022-09-11T18:31:30.181Z,4.30
2022-09-11T18:36:36.425Z,3.80
2022-09-11T18:41:44.476Z,4.10
2022-09-11T18:46:55.089Z,4.10
2022-09-11T18:52:01.877Z,4.00
2022-09-11T18:57:09.036Z,4.20
2022-09-11T19:02:15.279Z,4.30
2022-09-11T19:07:21.393Z,3.80
2022-09-11T19:12:27.634Z,4.20
2022-09-11T19:17:34.399Z,4.30
2022-09-11T19:22:41.447Z,4.50
2022-09-11T19:27:47.750Z,4.10
2022-09-11T19:32:53.760Z,3.90
2022-09-11T19:38:00.433Z,4.40
2022-09-11T19:43:07.059Z,4.40
2022-09-11T19:48:12.947Z,5.00
2022-09-11T19:53:19.070Z,5.50
2022-09-11T19:58:25.782Z,6.10
2022-09-11T20:03:32.185Z,5.20
2022-09-11T20:08:40.250Z,6.00
2022-09-11T20:13:46.725Z,6.00
2022-09-11T20:18:55.359Z,6.50
2022-09-11T20:24:02.669Z,6.60
2022-09-11T20:29:12.839Z,8.90
2022-09-11T20:34:20.328Z,7.70
2022-09-11T20:39:26.293Z,6.40
2022-09-11T20:44:36.762Z,7.30
2022-09-11T20:49:43.520Z,6.50
2022-09-11T20:54:50.625Z,5.00
2022-09-11T20:59:56.616Z,4.80
2022-09-11T21:05:03.920Z,5.20
2022-09-11T21:10:11.490Z,5.10
2022-09-11T21:15:18.041Z,4.40
2022-09-11T21:20:24.210Z,4.80
2022-09-11T21:25:30.683Z,4.70
2022-09-11T21:30:39.247Z,4.90
2022-09-11T21:35:49.206Z,4.60
2022-09-11T21:40:55.869Z,4.50
2022-09-11T21:46:02.329Z,4.80
2022-09-11T21:51:12.919Z,3.60
2022-09-11T21:56:20.766Z,2.70
2022-09-11T22:01:28.587Z,2.50
2022-09-11T22:06:34.911Z,2.50
2022-09-11T22:11:40.738Z,2.90
2022-09-11T22:16:47.105Z,2.60
2022-09-11T22:21:53.561Z,2.30
2022-09-11T22:26:59.659Z,2.70
2022-09-11T22:32:06.718Z,2.80
2022-09-11T22:37:13.954Z,2.60
2022-09-11T22:42:20.238Z,2.40
2022-09-11T22:47:26.994Z,2.60
2022-09-11T22:52:33.182Z,2.60
2022-09-11T22:57:39.878Z,2.30
2022-09-11T23:02:46.041Z,2.80
2022-09-11T23:07:53.842Z,2.80
2022-09-11T23:13:00.014Z,2.90
2022-09-11T23:18:07.238Z,2.60
2022-09-11T23:23:13.611Z,2.70
2022-09-11T23:28:20.261Z,2.70
2022-09-11T23:33:26.378Z,2.90
2022-09-11T23:38:32.407Z,2.90
2022-09-11T23:43:38.812Z,3.10
2022-09-11T23:48:45.529Z,2.40
2022-09-11T23:53:51.967Z,3.00
2022-09-11T23:58:58.738Z,2.90
